WetterOnline ( https://www.wetteronline.de )

Wetter aktuell Zarki Wielkie

Aktuelles Wetter: Hoyerswerda (116m)

6-stündlich | Neueste Meldungen
Ortszeit Temperatur Wetter
Sa, 15.08. 2:00 19.1° C bedeckt
Fr, 14.08. 20:00 21.7° C bedeckt
Fr, 14.08. 14:00 30.0° C wolkig
Fr, 14.08. 8:00 22.1° C wolkig
Fr, 14.08. 2:00 20.6° C wolkig
Do, 13.08. 20:00 27.8° C bedeckt
Do, 13.08. 14:00 31.4° C bewölkt
Do, 13.08. 8:00 22.4° C wolkig
Ortszeit Temperatur Wetter
Sa, 15.08. 7:30 18.9° C wolkig
Sa, 15.08. 7:20 18.9° C wolkig
Sa, 15.08. 7:10 18.6° C wolkig
Sa, 15.08. 7:00 18.1° C wolkig
Sa, 15.08. 6:50 18.1° C wolkig
Sa, 15.08. 6:40 17.9° C wolkig
Sa, 15.08. 6:30 17.9° C wolkig
Sa, 15.08. 6:00 17.7° C bedeckt
Ortszeit Relative Feuchte Sichtweite
Sa, 15.08. 2:00 89% 23 km
Fr, 14.08. 20:00 76% 45 km
Fr, 14.08. 14:00 45% 35 km
Fr, 14.08. 8:00 63% 40 km
Fr, 14.08. 2:00 72% 40 km
Do, 13.08. 20:00 43% 55 km
Do, 13.08. 14:00 35% 55 km
Do, 13.08. 8:00 62% 40 km
Ortszeit Relative Feuchte Sichtweite
Sa, 15.08. 7:30 93% 14 km
Sa, 15.08. 7:20 93% -
Sa, 15.08. 7:10 94% -
Sa, 15.08. 7:00 94% 14 km
Sa, 15.08. 6:50 94% -
Sa, 15.08. 6:40 95% -
Sa, 15.08. 6:30 95% 12 km
Sa, 15.08. 6:00 94% 17 km
Ortszeit Niederschlagsmenge Niederschlagsart
Sa, 15.08. 2:00 0.0 l/m2 in 6 Std. -
Fr, 14.08. 20:00 0.1 l/m2 in 12 Std. Regen
Fr, 14.08. 14:00 0.0 l/m2 in 6 Std. -
Fr, 14.08. 8:00 0.0 l/m2 in 12 Std. -
Fr, 14.08. 2:00 0.0 l/m2 in 6 Std. -
Do, 13.08. 20:00 0.1 l/m2 in 12 Std. Niederschlag
Do, 13.08. 14:00 0.0 l/m2 in 6 Std. -
Do, 13.08. 8:00 0.0 l/m2 in 12 Std. -
Ortszeit Niederschlagsmenge Niederschlagsart
Sa, 15.08. 7:30 0.0 l/m2 in 1 Std. -
Sa, 15.08. 7:20 keine Meldung -
Sa, 15.08. 7:10 keine Meldung -
Sa, 15.08. 7:00 0.0 l/m2 in 1 Std. -
Sa, 15.08. 6:50 keine Meldung -
Sa, 15.08. 6:40 keine Meldung -
Sa, 15.08. 6:30 0.0 l/m2 in 1 Std. -
Sa, 15.08. 6:00 0.0 l/m2 in 1 Std. -
Ortszeit Stärke Spitze Richtung
km/h Bft. km/h Grad Sektor
Sa, 15.08. 2:00 4 1 7 320° NW
Fr, 14.08. 20:00 4 1 36 130° SO
Fr, 14.08. 14:00 9 2 20 300° NW
Fr, 14.08. 8:00 7 2 14 250° W
Fr, 14.08. 2:00 4 1 11 200° S
Do, 13.08. 20:00 7 2 25 70° O
Do, 13.08. 14:00 9 2 24 100° O
Do, 13.08. 8:00 4 1 14 130° SO
Ortszeit Stärke Spitze Richtung
km/h Bft. km/h Grad Sektor
Sa, 15.08. 7:30 2 1 4 260° W
Sa, 15.08. 7:20 2 1 - 260° W
Sa, 15.08. 7:10 4 1 - 290° W
Sa, 15.08. 7:00 4 1 4 270° W
Sa, 15.08. 6:50 4 1 - 270° W
Sa, 15.08. 6:40 2 1 - 280° W
Sa, 15.08. 6:30 4 1 4 300° NW
Sa, 15.08. 6:00 4 1 4 350° N
Ortszeit Untergrenze Bedeckung Gattung
total tief tief mittel hoch
Sa, 15.08. 2:00 3600 m 8/8 8/8 - - -
Fr, 14.08. 20:00 3900 m 8/8 8/8 - - -
Fr, 14.08. 14:00 1500 m 6/8 5/8 - - -
Fr, 14.08. 8:00 2100 m 8/8 1/8 - - -
Fr, 14.08. 2:00 2700 m 8/8 3/8 - - -
Do, 13.08. 20:00 3600 m 8/8 8/8 - - -
Do, 13.08. 14:00 3900 m 7/8 7/8 - - -
Do, 13.08. 8:00 4200 m 5/8 5/8 - - -
Ortszeit Bedeckungsgrad in Achtel und Wolkenuntergrenze
Sa, 15.08. 7:30 1(2100m) 7(3900m) 8(5100m)
Sa, 15.08. 7:20 1(2100m) 7(3900m) 8(5100m)
Sa, 15.08. 7:10 2(2100m) 6(3900m) 8(5100m)
Sa, 15.08. 7:00 1(2100m) 4(4200m) 8(5100m)
Sa, 15.08. 6:50 1(2100m) 4(4200m) 8(5100m)
Sa, 15.08. 6:40 2(2100m) 4(4500m) 8(5100m)
Sa, 15.08. 6:30 3(2100m) 6(4200m) 8(5100m)
Sa, 15.08. 6:00 8(4200m) 8(5100m)
Ortszeit Luftdruck NN (hPa) Tendenz (hPa in 3 Std.)
Sa, 15.08. 2:00 1013 - 0,1
Fr, 14.08. 20:00 1012 + 0,7
Fr, 14.08. 14:00 1011 - 0,7
Fr, 14.08. 8:00 1013 + 0,3
Fr, 14.08. 2:00 1012 - 0,1
Do, 13.08. 20:00 1012 - 0,3
Do, 13.08. 14:00 1013 - 1,0
Do, 13.08. 8:00 1015 - 0,1
Ortszeit Luftdruck NN (hPa) Tendenz (hPa in 3 Std.)
Sa, 15.08. 7:30 1013 + 0,3
Sa, 15.08. 7:20 1013 keine Meldung
Sa, 15.08. 7:10 1014 keine Meldung
Sa, 15.08. 7:00 1013 + 0,2
Sa, 15.08. 6:50 1013 keine Meldung
Sa, 15.08. 6:40 1013 keine Meldung
Sa, 15.08. 6:30 1013 + 0,1
Sa, 15.08. 6:00 1013 - 0,2
Ortszeit Schneehöhe (cm)
Sa, 15.08. 2:00 -
Fr, 14.08. 20:00 -
Fr, 14.08. 14:00 -
Fr, 14.08. 8:00 -
Fr, 14.08. 2:00 -
Do, 13.08. 20:00 -
Do, 13.08. 14:00 -
Do, 13.08. 8:00 -
Ortszeit Schneehöhe (cm)
Sa, 15.08. 7:30 -
Sa, 15.08. 7:20 -
Sa, 15.08. 7:10 -
Sa, 15.08. 7:00 -
Sa, 15.08. 6:50 -
Sa, 15.08. 6:40 -
Sa, 15.08. 6:30 -
Sa, 15.08. 6:00 -
Link zu dieser Seite / Seite empfehlen

Das Wetter in ...